createdAt,value
2018-12-04T00:01:27.872Z,90.60
2018-12-04T00:03:55.586Z,90.80
2018-12-04T00:06:23.223Z,91.00
2018-12-04T00:08:51.048Z,91.30
2018-12-04T00:11:18.603Z,91.60
2018-12-04T00:13:46.120Z,91.90
2018-12-04T00:16:13.574Z,92.00
2018-12-04T00:18:41.006Z,92.10
2018-12-04T00:21:08.594Z,92.10
2018-12-04T00:23:36.168Z,92.00
2018-12-04T00:26:03.809Z,92.00
2018-12-04T00:28:31.360Z,91.80
2018-12-04T00:30:58.978Z,91.80
2018-12-04T00:33:26.562Z,91.90
2018-12-04T00:35:54.197Z,92.00
2018-12-04T00:38:21.734Z,91.90
2018-12-04T00:40:49.284Z,91.80
2018-12-04T00:43:16.805Z,91.80
2018-12-04T00:45:44.441Z,91.90
2018-12-04T00:48:12.162Z,91.90
2018-12-04T00:50:39.902Z,92.10
2018-12-04T00:53:08.859Z,92.00
2018-12-04T00:55:39.437Z,92.00
2018-12-04T00:58:07.360Z,92.00
2018-12-04T01:00:35.163Z,92.00
2018-12-04T01:03:03.215Z,92.10
2018-12-04T01:05:30.796Z,92.50
2018-12-04T01:07:58.293Z,92.20
2018-12-04T01:10:25.829Z,92.50
2018-12-04T01:12:53.438Z,92.20
2018-12-04T01:15:21.182Z,91.90
2018-12-04T01:17:48.811Z,91.70
2018-12-04T01:20:16.564Z,91.60
2018-12-04T01:22:44.132Z,91.50
2018-12-04T01:25:11.785Z,91.50
2018-12-04T01:27:39.486Z,91.40
2018-12-04T01:30:07.091Z,91.30
2018-12-04T01:32:34.897Z,91.20
2018-12-04T01:35:02.441Z,91.00
2018-12-04T01:37:29.996Z,90.90
2018-12-04T01:39:57.559Z,90.80
2018-12-04T01:42:25.442Z,90.50
2018-12-04T01:44:53.048Z,90.50
2018-12-04T01:47:20.556Z,90.40
2018-12-04T01:49:48.234Z,90.30
2018-12-04T01:52:15.830Z,90.20
2018-12-04T01:54:43.290Z,90.20
2018-12-04T01:57:10.829Z,90.10
2018-12-04T01:59:38.385Z,90.20
2018-12-04T02:02:05.832Z,90.00
2018-12-04T02:04:33.584Z,90.20
2018-12-04T02:07:01.060Z,90.20
2018-12-04T02:09:28.536Z,90.20
2018-12-04T02:11:56.134Z,89.80
2018-12-04T02:14:23.777Z,90.30
2018-12-04T02:16:51.392Z,90.30
2018-12-04T02:19:18.992Z,90.30
2018-12-04T02:21:46.466Z,90.30
2018-12-04T02:24:14.056Z,90.30
2018-12-04T02:26:41.616Z,90.30
2018-12-04T02:29:09.189Z,90.30
2018-12-04T02:31:36.835Z,90.30
2018-12-04T02:34:04.637Z,90.10
2018-12-04T02:36:32.347Z,90.10
2018-12-04T02:39:00.069Z,90.10
2018-12-04T02:41:27.744Z,90.10
2018-12-04T02:43:55.323Z,90.10
2018-12-04T02:46:22.957Z,90.10
2018-12-04T02:48:50.376Z,90.10
2018-12-04T02:51:17.936Z,90.10
2018-12-04T02:53:45.871Z,90.10
2018-12-04T02:56:13.420Z,90.10
2018-12-04T02:58:41.076Z,90.00
2018-12-04T03:01:08.664Z,90.00
2018-12-04T03:03:36.180Z,90.00
2018-12-04T03:06:03.809Z,90.10
2018-12-04T03:08:31.407Z,90.20
2018-12-04T03:10:59.137Z,90.20
2018-12-04T03:13:26.764Z,90.50
2018-12-04T03:15:54.420Z,90.70
2018-12-04T03:18:22.045Z,90.80
2018-12-04T03:20:49.550Z,90.90
2018-12-04T03:23:17.264Z,91.00
2018-12-04T03:25:44.786Z,91.10
2018-12-04T03:28:12.328Z,91.30
2018-12-04T03:30:40.028Z,91.60
2018-12-04T03:33:07.763Z,91.30
2018-12-04T03:35:35.364Z,91.40
2018-12-04T03:38:03.151Z,91.50
2018-12-04T03:40:31.226Z,91.70
2018-12-04T03:42:58.982Z,91.90
2018-12-04T03:45:26.550Z,92.00
2018-12-04T03:47:54.107Z,92.10
2018-12-04T03:50:22.076Z,92.30
2018-12-04T03:52:49.521Z,92.40
2018-12-04T03:55:17.101Z,92.60
2018-12-04T03:57:44.810Z,92.70
2018-12-04T04:00:12.471Z,92.80
2018-12-04T04:02:40.042Z,92.90
2018-12-04T04:05:07.627Z,92.70
2018-12-04T04:07:35.359Z,93.10
2018-12-04T04:10:03.874Z,93.10
2018-12-04T04:12:31.456Z,93.10
2018-12-04T04:14:59.102Z,93.20
2018-12-04T04:17:26.659Z,93.20
2018-12-04T04:19:54.124Z,93.30
2018-12-04T04:22:21.635Z,93.30
2018-12-04T04:24:49.194Z,93.40
2018-12-04T04:27:16.854Z,93.40
2018-12-04T04:29:44.429Z,93.40
2018-12-04T04:32:11.915Z,93.10
2018-12-04T04:34:39.486Z,93.40
2018-12-04T04:37:07.136Z,93.40
2018-12-04T04:39:34.906Z,93.40
2018-12-04T04:42:03.607Z,93.40
2018-12-04T04:44:31.227Z,93.30
2018-12-04T04:46:58.923Z,93.30
2018-12-04T04:49:26.474Z,93.40
2018-12-04T04:51:54.075Z,93.30
2018-12-04T04:54:21.623Z,93.20
2018-12-04T04:56:49.191Z,93.20
2018-12-04T04:59:16.841Z,93.20
2018-12-04T05:01:44.522Z,93.20
2018-12-04T05:04:12.376Z,93.20
2018-12-04T05:06:40.083Z,93.20
2018-12-04T05:09:07.620Z,93.20
2018-12-04T05:11:35.107Z,93.50
2018-12-04T05:14:02.742Z,93.10
2018-12-04T05:16:30.344Z,93.20
2018-12-04T05:18:58.233Z,92.90
2018-12-04T05:21:26.121Z,92.90
2018-12-04T05:23:53.687Z,92.90
2018-12-04T05:26:21.287Z,92.90
2018-12-04T05:28:48.853Z,92.80
2018-12-04T05:31:16.350Z,92.90
2018-12-04T05:33:44.013Z,92.80
2018-12-04T05:36:11.767Z,92.70
2018-12-04T05:38:39.332Z,92.60
2018-12-04T05:41:06.855Z,92.50
2018-12-04T05:43:34.385Z,92.40
2018-12-04T05:46:02.063Z,92.30
2018-12-04T05:48:29.614Z,92.00
2018-12-04T05:50:57.063Z,91.80
2018-12-04T05:53:33.791Z,91.90
2018-12-04T05:56:01.380Z,91.80
2018-12-04T05:58:29.291Z,91.80
2018-12-04T06:00:57.364Z,91.70
2018-12-04T06:03:24.982Z,91.70
2018-12-04T06:05:52.659Z,91.60
2018-12-04T06:08:20.148Z,91.60
2018-12-04T06:10:48.765Z,91.60
2018-12-04T06:13:16.612Z,91.60
2018-12-04T06:15:44.379Z,91.60
2018-12-04T06:18:11.972Z,91.50
2018-12-04T06:20:39.648Z,91.50
2018-12-04T06:23:07.547Z,91.50
2018-12-04T06:25:35.269Z,91.40
2018-12-04T06:28:02.842Z,91.40
2018-12-04T06:30:30.388Z,91.30
2018-12-04T06:32:58.152Z,91.40
2018-12-04T06:35:26.082Z,91.40
2018-12-04T06:37:53.616Z,91.40
2018-12-04T06:40:21.195Z,91.50
2018-12-04T06:42:48.772Z,91.50
2018-12-04T06:45:16.380Z,91.50
2018-12-04T06:47:44.120Z,91.50
2018-12-04T06:50:11.767Z,91.50
2018-12-04T06:52:39.356Z,91.40
2018-12-04T06:55:08.033Z,91.30
2018-12-04T06:57:35.911Z,91.00
2018-12-04T07:00:05.306Z,90.70
2018-12-04T07:02:33.170Z,90.60
2018-12-04T07:05:00.556Z,90.30
2018-12-04T07:07:28.092Z,90.20
2018-12-04T07:09:55.642Z,89.80
2018-12-04T07:12:23.175Z,89.00
2018-12-04T07:14:50.820Z,89.60
2018-12-04T07:17:18.805Z,88.80
2018-12-04T07:19:46.463Z,88.90
2018-12-04T07:22:14.155Z,88.70
2018-12-04T07:24:41.709Z,88.50
2018-12-04T07:27:09.326Z,88.30
2018-12-04T07:29:36.783Z,88.50
2018-12-04T07:32:04.278Z,88.60
2018-12-04T07:34:31.965Z,88.70
2018-12-04T07:36:59.548Z,88.90
2018-12-04T07:39:27.191Z,89.20
2018-12-04T07:41:54.924Z,89.70
2018-12-04T07:44:22.502Z,90.00
2018-12-04T07:46:50.092Z,90.10
2018-12-04T07:49:17.601Z,90.20
2018-12-04T07:51:45.602Z,90.30
2018-12-04T07:54:13.504Z,90.80
2018-12-04T07:56:41.101Z,90.60
2018-12-04T07:59:08.599Z,90.70
2018-12-04T08:01:36.688Z,90.70
2018-12-04T08:04:04.301Z,90.70
2018-12-04T08:06:31.997Z,90.80
2018-12-04T08:08:59.456Z,90.70
2018-12-04T08:11:27.214Z,90.80
2018-12-04T08:13:54.743Z,90.60
2018-12-04T08:16:22.475Z,90.50
2018-12-04T08:18:49.992Z,90.30
2018-12-04T08:21:17.801Z,90.10
2018-12-04T08:23:45.545Z,90.10
2018-12-04T08:26:13.123Z,90.10
2018-12-04T08:28:40.682Z,89.90
2018-12-04T08:31:08.270Z,89.60
2018-12-04T08:33:35.778Z,89.30
2018-12-04T08:36:03.595Z,89.00
2018-12-04T08:38:31.138Z,88.70
2018-12-04T08:40:58.634Z,88.30
2018-12-04T08:43:26.182Z,87.60
2018-12-04T08:45:53.701Z,87.20
2018-12-04T08:48:21.260Z,87.00
2018-12-04T08:50:48.800Z,87.00
2018-12-04T08:53:16.322Z,86.50
2018-12-04T08:55:43.850Z,86.80
2018-12-04T08:58:11.438Z,86.80
2018-12-04T09:00:38.946Z,86.30
2018-12-04T09:03:06.462Z,86.00
2018-12-04T09:05:33.985Z,85.90
2018-12-04T09:08:01.561Z,85.90
2018-12-04T09:10:29.332Z,85.60
2018-12-04T09:12:57.242Z,85.50
2018-12-04T09:15:25.635Z,85.90
2018-12-04T09:17:53.064Z,84.40
2018-12-04T09:20:20.606Z,83.50
2018-12-04T09:22:48.129Z,83.00
2018-12-04T09:25:15.806Z,82.20
2018-12-04T09:27:43.513Z,81.60
2018-12-04T09:30:12.135Z,81.40
2018-12-04T09:32:39.819Z,80.80
2018-12-04T09:35:07.363Z,80.50
2018-12-04T09:37:34.864Z,77.40
2018-12-04T09:40:02.496Z,73.40
2018-12-04T09:42:30.288Z,71.50
2018-12-04T09:44:57.927Z,65.30
2018-12-04T09:47:25.508Z,58.70
2018-12-04T09:49:53.094Z,53.90
2018-12-04T09:52:20.607Z,50.20
2018-12-04T09:54:48.138Z,51.00
2018-12-04T09:57:15.714Z,51.50
2018-12-04T09:59:43.598Z,51.80
2018-12-04T10:02:11.107Z,53.20
2018-12-04T10:04:38.692Z,53.20
2018-12-04T10:07:06.185Z,50.20
2018-12-04T10:09:33.705Z,47.20
2018-12-04T10:12:01.459Z,45.00
2018-12-04T10:14:28.937Z,43.10
2018-12-04T10:16:56.618Z,42.10
2018-12-04T10:19:24.323Z,41.60
2018-12-04T10:21:52.085Z,41.10
2018-12-04T10:24:19.806Z,40.20
2018-12-04T10:26:52.041Z,39.60
2018-12-04T10:29:19.685Z,39.00
2018-12-04T10:31:47.254Z,38.70
2018-12-04T10:34:14.904Z,38.90
2018-12-04T10:36:42.480Z,38.00
2018-12-04T10:39:10.154Z,38.40
2018-12-04T10:41:38.090Z,38.40
2018-12-04T10:44:05.864Z,38.30
2018-12-04T10:46:33.424Z,38.40
2018-12-04T10:49:00.980Z,39.50
2018-12-04T10:51:28.635Z,41.10
2018-12-04T10:53:56.411Z,43.30
2018-12-04T10:56:24.097Z,44.60
2018-12-04T10:58:51.688Z,45.90
2018-12-04T11:01:26.945Z,47.30
2018-12-04T11:03:54.492Z,48.70
2018-12-04T11:06:22.113Z,50.40
2018-12-04T11:08:49.991Z,52.00
2018-12-04T11:11:17.711Z,53.80
2018-12-04T11:13:45.371Z,55.00
2018-12-04T11:16:13.049Z,56.30
2018-12-04T11:18:40.559Z,57.40
2018-12-04T11:21:08.137Z,58.30
2018-12-04T11:23:35.720Z,59.20
2018-12-04T11:26:03.451Z,60.40
2018-12-04T11:28:31.032Z,61.40
2018-12-04T11:30:58.623Z,62.60
2018-12-04T11:33:26.232Z,63.90
2018-12-04T11:35:53.765Z,65.20
2018-12-04T11:38:21.330Z,66.60
2018-12-04T11:40:48.939Z,67.70
2018-12-04T11:43:16.471Z,69.00
2018-12-04T11:45:44.040Z,70.10
2018-12-04T11:48:11.597Z,71.60
2018-12-04T11:50:39.215Z,71.30
2018-12-04T11:53:06.669Z,71.80
2018-12-04T11:55:34.192Z,72.20
2018-12-04T11:58:01.925Z,72.80
2018-12-04T12:00:33.832Z,73.30
2018-12-04T12:03:01.804Z,73.30
2018-12-04T12:05:29.534Z,70.50
2018-12-04T12:07:57.106Z,67.90
2018-12-04T12:10:25.207Z,66.50
2018-12-04T12:12:52.744Z,65.30
2018-12-04T12:15:20.312Z,64.70
2018-12-04T12:17:47.950Z,64.50
2018-12-04T12:20:15.508Z,64.60
2018-12-04T12:22:43.123Z,65.80
2018-12-04T12:25:10.871Z,66.90
2018-12-04T12:27:38.513Z,68.00
2018-12-04T12:30:08.509Z,69.00
2018-12-04T12:32:36.067Z,70.00
2018-12-04T12:35:04.223Z,70.90
2018-12-04T12:37:31.839Z,71.50
2018-12-04T12:39:59.451Z,71.80
2018-12-04T12:42:27.120Z,72.30
2018-12-04T12:44:54.679Z,72.60
2018-12-04T12:47:22.332Z,73.10
2018-12-04T12:49:49.927Z,73.60
2018-12-04T12:52:17.629Z,74.00
2018-12-04T12:54:45.191Z,74.40
2018-12-04T12:57:12.769Z,74.80
2018-12-04T12:59:40.399Z,75.00
2018-12-04T13:02:07.937Z,75.30
2018-12-04T13:04:35.675Z,75.40
2018-12-04T13:07:03.470Z,75.30
2018-12-04T13:09:31.087Z,75.00
2018-12-04T13:11:58.859Z,74.70
2018-12-04T13:14:26.453Z,74.10
2018-12-04T13:16:55.149Z,73.60
2018-12-04T13:19:22.895Z,73.10
2018-12-04T13:21:50.460Z,72.70
2018-12-04T13:24:18.045Z,72.50
2018-12-04T13:26:45.843Z,72.20
2018-12-04T13:29:13.408Z,72.00
2018-12-04T13:31:40.932Z,72.10
2018-12-04T13:34:08.738Z,72.20
2018-12-04T13:36:36.343Z,72.40
2018-12-04T13:39:07.628Z,73.10
2018-12-04T13:41:35.393Z,73.00
2018-12-04T13:44:03.072Z,73.30
2018-12-04T13:46:30.604Z,73.90
2018-12-04T13:48:58.031Z,74.10
2018-12-04T13:51:25.640Z,74.50
2018-12-04T13:53:53.287Z,75.70
2018-12-04T13:56:22.465Z,75.20
2018-12-04T13:58:50.467Z,75.50
2018-12-04T14:01:18.026Z,75.80
2018-12-04T14:03:45.754Z,76.10
2018-12-04T14:06:13.581Z,76.30
2018-12-04T14:08:41.339Z,76.50
2018-12-04T14:11:08.967Z,76.80
2018-12-04T14:13:36.518Z,77.00
2018-12-04T14:16:04.086Z,77.30
2018-12-04T14:18:32.015Z,77.50
2018-12-04T14:20:59.666Z,77.70
2018-12-04T14:23:27.229Z,77.90
2018-12-04T14:25:54.939Z,78.10
2018-12-04T14:28:22.815Z,78.30
2018-12-04T14:30:50.423Z,78.60
2018-12-04T14:33:17.988Z,78.70
2018-12-04T14:35:46.139Z,78.90
2018-12-04T14:38:13.822Z,79.10
2018-12-04T14:40:41.459Z,79.30
2018-12-04T14:43:09.075Z,79.40
2018-12-04T14:45:36.786Z,79.60
2018-12-04T14:48:04.343Z,79.60
2018-12-04T14:50:32.021Z,79.80
2018-12-04T14:52:59.682Z,80.00
2018-12-04T14:55:27.309Z,80.30
2018-12-04T14:57:55.280Z,80.60
2018-12-04T15:00:23.028Z,81.00
2018-12-04T15:02:50.600Z,81.40
2018-12-04T15:05:18.360Z,81.60
2018-12-04T15:07:46.026Z,81.90
2018-12-04T15:10:13.965Z,82.00
2018-12-04T15:12:48.159Z,82.30
2018-12-04T15:15:15.796Z,82.40
2018-12-04T15:17:43.321Z,83.40
2018-12-04T15:20:11.072Z,82.90
2018-12-04T15:22:38.745Z,82.90
2018-12-04T15:25:06.491Z,83.10
2018-12-04T15:27:34.068Z,83.10
2018-12-04T15:30:01.737Z,83.30
2018-12-04T15:32:29.438Z,84.30
2018-12-04T15:34:56.982Z,83.80
2018-12-04T15:37:24.606Z,84.30
2018-12-04T15:39:52.537Z,84.50
2018-12-04T15:42:20.517Z,84.90
2018-12-04T15:44:48.092Z,85.20
2018-12-04T15:47:15.692Z,85.50
2018-12-04T15:49:43.288Z,85.70
2018-12-04T15:52:10.886Z,85.90
2018-12-04T15:54:38.746Z,86.00
2018-12-04T15:57:06.414Z,86.20
2018-12-04T15:59:34.072Z,86.50
2018-12-04T16:02:02.338Z,86.80
2018-12-04T16:04:30.044Z,87.10
2018-12-04T16:06:57.627Z,87.40
2018-12-04T16:09:25.334Z,87.60
2018-12-04T16:11:53.002Z,87.80
2018-12-04T16:14:20.588Z,88.10
2018-12-04T16:16:48.220Z,88.40
2018-12-04T16:19:15.920Z,88.80
2018-12-04T16:21:43.453Z,89.20
2018-12-04T16:24:11.066Z,89.70
2018-12-04T16:26:38.780Z,89.90
2018-12-04T16:29:06.404Z,90.00
2018-12-04T16:31:33.933Z,90.20
2018-12-04T16:34:01.686Z,90.20
2018-12-04T16:36:29.211Z,90.30
2018-12-04T16:38:57.107Z,90.70
2018-12-04T16:41:24.775Z,90.40
2018-12-04T16:43:52.451Z,90.50
2018-12-04T16:46:20.008Z,91.00
2018-12-04T16:48:47.891Z,90.60
2018-12-04T16:51:15.481Z,90.80
2018-12-04T16:53:43.165Z,90.80
2018-12-04T16:56:10.685Z,90.90
2018-12-04T16:58:38.400Z,90.90
2018-12-04T17:01:06.056Z,91.00
2018-12-04T17:03:33.618Z,91.00
2018-12-04T17:06:01.212Z,91.10
2018-12-04T17:08:29.009Z,91.30
2018-12-04T17:10:56.551Z,91.30
2018-12-04T17:13:24.229Z,91.50
2018-12-04T17:15:51.799Z,91.50
2018-12-04T17:18:19.320Z,91.60
2018-12-04T17:20:46.805Z,91.60
2018-12-04T17:23:14.375Z,91.60
2018-12-04T17:25:41.951Z,91.60
2018-12-04T17:28:09.625Z,91.60
2018-12-04T17:30:37.301Z,91.60
2018-12-04T17:33:05.085Z,91.60
2018-12-04T17:35:33.046Z,91.90
2018-12-04T17:38:00.746Z,91.80
2018-12-04T17:40:28.445Z,91.90
2018-12-04T17:42:56.052Z,92.00
2018-12-04T17:45:23.624Z,92.00
2018-12-04T17:47:51.160Z,92.00
2018-12-04T17:50:18.784Z,92.00
2018-12-04T17:52:46.519Z,92.10
2018-12-04T17:55:14.190Z,92.10
2018-12-04T17:57:41.621Z,92.20
2018-12-04T18:00:11.559Z,92.20
2018-12-04T18:02:39.107Z,92.20
2018-12-04T18:05:06.832Z,92.20
2018-12-04T18:07:34.341Z,92.30
2018-12-04T18:10:02.067Z,92.20
2018-12-04T18:12:29.811Z,92.20
2018-12-04T18:14:57.736Z,92.20
2018-12-04T18:17:25.323Z,92.00
2018-12-04T18:19:52.949Z,92.30
2018-12-04T18:22:21.100Z,92.40
2018-12-04T18:24:48.691Z,92.40
2018-12-04T18:27:16.357Z,92.50
2018-12-04T18:29:43.975Z,92.60
2018-12-04T18:32:11.537Z,92.60
2018-12-04T18:34:39.102Z,92.70
2018-12-04T18:37:06.708Z,92.80
2018-12-04T18:39:34.213Z,92.80
2018-12-04T18:42:01.760Z,92.80
2018-12-04T18:44:29.382Z,92.90
2018-12-04T18:46:57.077Z,92.90
2018-12-04T18:49:24.618Z,92.90
2018-12-04T18:51:52.197Z,92.90
2018-12-04T18:54:19.868Z,92.90
2018-12-04T18:56:47.395Z,93.00
2018-12-04T18:59:14.980Z,93.10
2018-12-04T19:01:42.447Z,93.10
2018-12-04T19:04:10.337Z,93.20
2018-12-04T19:06:37.932Z,93.20
2018-12-04T19:09:07.441Z,93.20
2018-12-04T19:11:35.163Z,93.20
2018-12-04T19:14:03.055Z,93.20
2018-12-04T19:16:30.735Z,93.30
2018-12-04T19:18:58.476Z,93.20
2018-12-04T19:21:25.999Z,93.20
2018-12-04T19:23:53.584Z,93.20
2018-12-04T19:26:21.060Z,93.20
2018-12-04T19:28:51.750Z,93.20
2018-12-04T19:31:19.319Z,93.20
2018-12-04T19:33:46.886Z,93.20
2018-12-04T19:36:14.534Z,93.20
2018-12-04T19:38:42.098Z,93.20
2018-12-04T19:41:09.659Z,93.20
2018-12-04T19:43:37.184Z,93.30
2018-12-04T19:46:04.878Z,93.30
2018-12-04T19:48:32.588Z,93.30
2018-12-04T19:51:00.119Z,93.30
2018-12-04T19:53:27.679Z,93.30
2018-12-04T19:55:55.241Z,93.40
2018-12-04T19:58:22.853Z,93.50
2018-12-04T20:00:50.573Z,93.50
2018-12-04T20:03:18.278Z,93.60
2018-12-04T20:08:31.876Z,93.90
2018-12-04T20:10:59.964Z,93.80
2018-12-04T20:13:27.652Z,93.90
2018-12-04T20:15:55.414Z,94.00
2018-12-04T20:18:22.950Z,94.10
2018-12-04T20:20:50.542Z,94.20
2018-12-04T20:23:24.990Z,94.20
2018-12-04T20:25:52.581Z,94.60
2018-12-04T20:28:20.256Z,94.20
2018-12-04T20:30:47.813Z,94.60
2018-12-04T20:33:15.416Z,94.30
2018-12-04T20:35:42.888Z,94.30
2018-12-04T20:38:10.445Z,94.40
2018-12-04T20:40:38.141Z,94.40
2018-12-04T20:43:05.744Z,94.40
2018-12-04T20:45:33.314Z,94.40
2018-12-04T20:48:00.923Z,94.40
2018-12-04T20:50:28.494Z,94.40
2018-12-04T20:52:56.006Z,94.50
2018-12-04T20:55:23.512Z,94.50
2018-12-04T20:57:51.206Z,94.50
2018-12-04T21:00:18.834Z,94.60
2018-12-04T21:02:46.686Z,94.60
2018-12-04T21:05:14.270Z,94.90
2018-12-04T21:07:41.836Z,94.60
2018-12-04T21:10:09.448Z,94.60
2018-12-04T21:12:36.964Z,94.60
2018-12-04T21:15:05.446Z,94.70
2018-12-04T21:17:33.056Z,94.70
2018-12-04T21:20:00.627Z,94.70
2018-12-04T21:22:28.238Z,94.70
2018-12-04T21:24:55.786Z,94.70
2018-12-04T21:27:29.217Z,95.00
2018-12-04T21:30:02.356Z,94.60
2018-12-04T21:32:35.768Z,94.90
2018-12-04T21:35:09.280Z,94.50
2018-12-04T21:37:42.702Z,94.50
2018-12-04T21:40:16.025Z,94.60
2018-12-04T21:44:51.591Z,94.70
2018-12-04T21:47:24.857Z,94.80
2018-12-04T21:49:52.532Z,94.90
2018-12-04T21:52:20.316Z,94.90
2018-12-04T21:54:47.816Z,95.00
2018-12-04T21:57:15.392Z,95.10
2018-12-04T21:59:43.313Z,95.10
2018-12-04T22:02:11.243Z,95.20
2018-12-04T22:04:38.977Z,95.20
2018-12-04T22:07:06.471Z,95.30
2018-12-04T22:09:34.798Z,95.30
2018-12-04T22:12:02.873Z,95.30
2018-12-04T22:14:30.573Z,95.40
2018-12-04T22:16:58.171Z,95.40
2018-12-04T22:19:25.815Z,95.40
2018-12-04T22:21:53.544Z,95.40
2018-12-04T22:24:21.251Z,95.40
2018-12-04T22:26:48.894Z,95.50
2018-12-04T22:29:16.429Z,95.90
2018-12-04T22:31:44.057Z,95.60
2018-12-04T22:34:11.633Z,95.70
2018-12-04T22:36:39.261Z,95.70
2018-12-04T22:39:08.772Z,95.80
2018-12-04T22:41:37.091Z,95.80
2018-12-04T22:44:04.928Z,95.80
2018-12-04T22:46:32.601Z,95.90
2018-12-04T22:49:00.354Z,95.80
2018-12-04T22:51:27.881Z,95.90
2018-12-04T22:53:55.670Z,95.90
2018-12-04T22:56:23.209Z,95.90
2018-12-04T22:58:50.925Z,95.90
2018-12-04T23:01:41.441Z,96.00
2018-12-04T23:04:09.384Z,96.00
2018-12-04T23:06:37.499Z,96.00
2018-12-04T23:09:09.637Z,96.00
2018-12-04T23:11:38.405Z,96.00
2018-12-04T23:14:06.443Z,96.00
2018-12-04T23:16:34.231Z,96.00
2018-12-04T23:19:02.011Z,96.00
2018-12-04T23:21:30.248Z,96.00
2018-12-04T23:23:57.985Z,96.30
2018-12-04T23:26:26.228Z,96.00
2018-12-04T23:28:57.097Z,96.10
2018-12-04T23:31:25.264Z,96.00
2018-12-04T23:33:54.054Z,96.00
2018-12-04T23:36:22.205Z,96.40
2018-12-04T23:38:49.998Z,96.00
2018-12-04T23:41:18.212Z,96.00
2018-12-04T23:43:45.820Z,96.10
2018-12-04T23:46:13.727Z,96.10
2018-12-04T23:48:41.508Z,96.00
2018-12-04T23:51:09.191Z,96.00
2018-12-04T23:53:36.797Z,96.00
2018-12-04T23:56:04.501Z,96.00
2018-12-04T23:58:32.072Z,96.10
